Time;durP1;ratioP1;P1;durP2;ratioP2;P2;SDS_P1;SDS_P2;PMS_P1;PMS_P2;Temp;Humidity;BMP_temperature;BMP_pressure;BME280_temperature;BME280_humidity;BME280_pressure;Samples;Min_cycle;Max_cycle;Signal;HPM_P1;HPM_P2
2023/12/17 00:02:45;;;;;;;;;;;;;;;16.63;45.96;101845.22;10330395;28;826;-72
2023/12/17 00:07:41;;;;;;;;;;;;;;;16.62;46.20;101844.34;10329568;28;867;-72
2023/12/17 00:12:37;;;;;;;;;;;;;;;16.60;46.25;101834.72;10329415;28;850;-72
2023/12/17 00:17:33;;;;;;;;;;;;;;;16.57;46.15;101829.47;10329922;28;1898;-72
2023/12/17 00:22:29;;;;;;;;;;;;;;;16.54;46.20;101830.34;10329570;28;929;-73
2023/12/17 00:27:25;;;;;;;;;;;;;;;16.53;46.24;101832.97;10328760;28;820;-72
2023/12/17 00:32:21;;;;;;;;;;;;;;;16.51;46.23;101818.97;10329338;28;932;-73
2023/12/17 00:37:16;;;;;;;;;;;;;;;16.48;46.43;101824.22;10328679;28;1890;-72
2023/12/17 00:42:12;;;;;;;;;;;;;;;16.46;46.41;101813.72;10328620;28;925;-73
2023/12/17 00:47:08;;;;;;;;;;;;;;;16.45;46.49;101817.22;10327512;28;827;-73
2023/12/17 00:52:04;;;;;;;;;;;;;;;16.43;46.43;101817.25;10328277;28;1618;-72
2023/12/17 00:57:00;;;;;;;;;;;;;;;16.42;46.39;101814.59;10327928;28;1910;-73
2023/12/17 01:01:56;;;;;;;;;;;;;;;16.41;46.45;101812.88;10327959;28;886;-72
2023/12/17 01:06:52;;;;;;;;;;;;;;;16.37;46.52;101809.38;10327142;28;894;-72
2023/12/17 01:11:48;;;;;;;;;;;;;;;16.37;46.49;101806.75;10327002;28;963;-72
2023/12/17 01:16:44;;;;;;;;;;;;;;;16.35;46.70;101810.28;10326703;28;1953;-72
2023/12/17 01:21:39;;;;;;;;;;;;;;;16.34;46.43;101811.13;10326876;28;768;-72
2023/12/17 01:26:35;;;;;;;;;;;;;;;16.34;46.64;101825.16;10326497;28;872;-73
2023/12/17 01:31:31;;;;;;;;;;;;;;;16.31;46.67;101821.69;10326516;28;945;-72
2023/12/17 01:36:28;;;;;;;;;;;;;;;16.31;46.58;101835.72;10325846;28;1913;-72
2023/12/17 01:41:23;;;;;;;;;;;;;;;16.30;46.55;101838.38;10326028;28;886;-72
2023/12/17 01:46:19;;;;;;;;;;;;;;;16.26;46.61;101824.31;10326683;28;892;-73
2023/12/17 01:51:15;;;;;;;;;;;;;;;16.25;46.63;101838.38;10325751;28;1004;-72
2023/12/17 01:56:11;;;;;;;;;;;;;;;16.25;46.68;101830.47;10324669;28;1969;-72
2023/12/17 02:01:07;;;;;;;;;;;;;;;16.23;46.84;101834.88;10326357;28;864;-73
2023/12/17 02:06:06;;;;;;;;;;;;;;;16.20;46.82;101827.00;10326039;28;885;-72
2023/12/17 02:11:02;;;;;;;;;;;;;;;16.20;46.68;101842.78;10325350;28;763;-73
2023/12/17 02:15:58;;;;;;;;;;;;;;;16.19;46.73;101849.81;10324564;28;1955;-73
2023/12/17 02:20:54;;;;;;;;;;;;;;;16.18;46.93;101842.78;10325167;28;984;-72
2023/12/17 02:25:49;;;;;;;;;;;;;;;16.17;46.94;101837.53;10324996;28;954;-72
2023/12/17 02:30:45;;;;;;;;;;;;;;;16.15;46.92;101828.75;10325578;28;767;-72
2023/12/17 02:35:41;;;;;;;;;;;;;;;16.15;46.92;101821.75;10324584;28;1981;-72
2023/12/17 02:40:37;;;;;;;;;;;;;;;16.13;47.00;101817.38;10324788;28;877;-72
2023/12/17 02:45:33;;;;;;;;;;;;;;;16.11;46.81;101808.59;10324708;28;958;-73
2023/12/17 02:50:29;;;;;;;;;;;;;;;16.10;46.91;101799.81;10324575;28;832;-73
2023/12/17 02:55:25;;;;;;;;;;;;;;;16.08;46.88;101798.09;10324410;28;1945;-72
2023/12/17 03:00:21;;;;;;;;;;;;;;;16.08;47.00;101796.31;10324998;28;728;-72
2023/12/17 03:05:17;;;;;;;;;;;;;;;16.08;46.82;101792.81;10324287;28;762;-73
2023/12/17 03:10:12;;;;;;;;;;;;;;;16.07;46.89;101802.47;10331373;28;881;-72
2023/12/17 03:15:08;;;;;;;;;;;;;;;16.08;46.92;101813.88;10332289;28;1947;-72
2023/12/17 03:20:04;;;;;;;;;;;;;;;16.06;46.83;101802.47;10331418;28;983;-73
2023/12/17 03:25:01;;;;;;;;;;;;;;;16.03;46.92;101789.34;10332099;28;864;-72
2023/12/17 03:29:56;;;;;;;;;;;;;;;16.03;47.03;101770.91;10331807;28;864;-73
2023/12/17 03:34:52;;;;;;;;;;;;;;;16.00;47.25;101775.31;10331519;28;1980;-72
2023/12/17 03:39:50;;;;;;;;;;;;;;;15.99;47.08;101768.31;10331538;28;824;-73
2023/12/17 03:44:46;;;;;;;;;;;;;;;15.98;46.95;101765.66;10331099;28;867;-72
2023/12/17 03:49:42;;;;;;;;;;;;;;;15.95;47.24;101766.56;10330247;28;958;-72
2023/12/17 03:54:38;;;;;;;;;;;;;;;15.94;47.20;101762.19;10330012;28;1893;-72
2023/12/17 03:59:33;;;;;;;;;;;;;;;15.95;47.17;101765.69;10329974;28;866;-72
2023/12/17 04:04:29;;;;;;;;;;;;;;;15.92;47.12;101763.94;10330348;28;858;-73
2023/12/17 04:09:25;;;;;;;;;;;;;;;15.94;46.95;101762.19;10329578;28;884;-73
2023/12/17 04:14:21;;;;;;;;;;;;;;;15.90;47.26;101755.19;10328758;28;1945;-72
2023/12/17 04:19:17;;;;;;;;;;;;;;;15.89;47.14;101745.53;10328792;28;851;-72
2023/12/17 04:24:13;;;;;;;;;;;;;;;15.88;47.27;101745.56;10328950;28;771;-73
2023/12/17 04:29:09;;;;;;;;;;;;;;;15.89;46.99;101747.31;10328155;28;905;-72
2023/12/17 04:34:05;;;;;;;;;;;;;;;15.86;46.99;101737.66;10328846;28;1898;-72
2023/12/17 04:39:01;;;;;;;;;;;;;;;15.85;47.11;101735.94;10328384;28;786;-72
2023/12/17 04:43:57;;;;;;;;;;;;;;;15.86;47.18;101735.03;10328248;28;897;-72
2023/12/17 04:48:52;;;;;;;;;;;;;;;15.99;46.80;101736.75;10327364;28;928;-72
2023/12/17 04:53:48;;;;;;;;;;;;;;;16.14;46.63;101720.03;10327802;28;964;-72
2023/12/17 04:58:44;;;;;;;;;;;;;;;16.18;46.41;101710.34;10327203;28;1973;-72
2023/12/17 05:03:40;;;;;;;;;;;;;;;16.31;46.18;101716.44;10327953;28;802;-72
2023/12/17 05:08:36;;;;;;;;;;;;;;;16.44;45.90;101720.72;10327764;28;854;-73
2023/12/17 05:13:32;;;;;;;;;;;;;;;16.57;45.64;101730.28;10327006;28;777;-72
2023/12/17 05:18:28;;;;;;;;;;;;;;;16.57;45.60;101719.75;10326725;28;1957;-72
2023/12/17 05:23:24;;;;;;;;;;;;;;;16.65;45.65;101719.72;10327312;28;916;-72
2023/12/17 05:28:19;;;;;;;;;;;;;;;16.67;45.65;101719.72;10325911;28;956;-73
2023/12/17 05:33:15;;;;;;;;;;;;;;;16.73;45.74;101693.31;10326574;28;926;-72
2023/12/17 05:38:11;;;;;;;;;;;;;;;16.78;45.51;101697.69;10325341;28;1993;-72
2023/12/17 05:43:08;;;;;;;;;;;;;;;16.80;45.42;101695.94;10326244;28;897;-72
2023/12/17 05:48:04;;;;;;;;;;;;;;;16.80;45.28;101698.56;10325906;28;880;-73
2023/12/17 05:53:00;;;;;;;;;;;;;;;16.86;45.14;101702.91;10325767;28;838;-73
2023/12/17 05:57:55;;;;;;;;;;;;;;;16.91;45.18;101714.28;10326291;28;1972;-74
2023/12/17 06:02:51;;;;;;;;;;;;;;;16.92;45.16;101718.66;10325513;28;994;-74
2023/12/17 06:07:48;;;;;;;;;;;;;;;16.99;45.27;101712.44;10325431;28;790;-73
2023/12/17 06:12:43;;;;;;;;;;;;;;;16.96;45.43;101712.47;10322571;28;1100;-83
2023/12/17 06:17:39;;;;;;;;;;;;;;;16.99;45.39;101709.81;10325075;28;1972;-73
2023/12/17 06:22:35;;;;;;;;;;;;;;;17.01;45.46;101709.81;10324452;28;842;-72
2023/12/17 06:27:33;;;;;;;;;;;;;;;17.01;45.46;101725.63;10325022;28;866;-73
2023/12/17 06:32:29;;;;;;;;;;;;;;;17.01;45.55;101725.63;10324369;28;860;-73
2023/12/17 06:37:25;;;;;;;;;;;;;;;16.99;45.59;101725.63;10324805;28;1906;-72
2023/12/17 06:42:20;;;;;;;;;;;;;;;17.00;45.51;101735.28;10327746;28;876;-72
2023/12/17 06:47:18;;;;;;;;;;;;;;;17.02;45.44;101751.06;10333116;28;818;-73
2023/12/17 06:52:14;;;;;;;;;;;;;;;16.99;45.63;101756.38;10331840;28;799;-73
2023/12/17 06:57:10;;;;;;;;;;;;;;;17.09;45.66;101765.94;10332295;28;1951;-73
2023/12/17 07:02:06;;;;;;;;;;;;;;;17.10;45.41;101762.41;10330857;28;855;-75
2023/12/17 07:07:02;;;;;;;;;;;;;;;17.13;45.50;101753.63;10331712;28;747;-73
2023/12/17 07:11:57;;;;;;;;;;;;;;;17.13;45.36;101751.84;10330868;28;958;-73
2023/12/17 07:16:53;;;;;;;;;;;;;;;17.13;45.53;101749.22;10331303;28;1898;-73
2023/12/17 07:21:49;;;;;;;;;;;;;;;17.17;45.54;101748.31;10330700;28;816;-72
2023/12/17 07:26:45;;;;;;;;;;;;;;;17.14;45.48;101743.06;10331148;28;874;-74
2023/12/17 07:31:41;;;;;;;;;;;;;;;17.17;45.54;101740.41;10331069;28;1011;-73
2023/12/17 07:36:37;;;;;;;;;;;;;;;17.19;45.34;101743.03;10331508;28;1965;-73
2023/12/17 07:41:33;;;;;;;;;;;;;;;17.20;45.38;101745.63;10330689;28;891;-73
2023/12/17 07:46:30;;;;;;;;;;;;;;;17.20;45.67;101750.03;10330446;28;1047;-74
2023/12/17 07:51:26;;;;;;;;;;;;;;;17.21;45.62;101757.94;10330315;28;875;-74
2023/12/17 07:56:22;;;;;;;;;;;;;;;17.22;45.94;101750.91;10329991;28;1981;-75
2023/12/17 08:01:18;;;;;;;;;;;;;;;17.23;46.00;101750.00;10329948;28;806;-71
2023/12/17 08:06:14;;;;;;;;;;;;;;;17.22;45.97;101756.19;10329727;28;985;-74
2023/12/17 08:11:13;;;;;;;;;;;;;;;17.20;45.94;101750.03;10329554;28;902;-74
2023/12/17 08:16:09;;;;;;;;;;;;;;;17.23;45.78;101747.38;10329276;28;1886;-73
2023/12/17 08:21:05;;;;;;;;;;;;;;;17.25;45.84;101749.09;10329132;28;886;-73
2023/12/17 08:26:00;;;;;;;;;;;;;;;17.21;45.74;101749.16;10329733;28;873;-74
2023/12/17 08:30:56;;;;;;;;;;;;;;;17.21;45.89;101744.78;10329320;28;937;-74
2023/12/17 08:35:52;;;;;;;;;;;;;;;17.25;45.70;101741.19;10328018;28;1910;-74
2023/12/17 08:40:48;;;;;;;;;;;;;;;17.25;45.58;101741.19;10328286;28;837;-74
2023/12/17 08:45:44;;;;;;;;;;;;;;;17.23;45.64;101732.44;10328594;28;882;-74
2023/12/17 08:50:40;;;;;;;;;;;;;;;17.26;45.56;101742.06;10327928;28;881;-73
2023/12/17 08:55:36;;;;;;;;;;;;;;;17.23;45.48;101735.06;10328469;28;1890;-74
2023/12/17 09:00:32;;;;;;;;;;;;;;;17.22;45.87;101733.34;10328161;28;877;-75
2023/12/17 09:05:28;;;;;;;;;;;;;;;17.27;45.77;101728.91;10327496;28;932;-74
2023/12/17 09:10:24;;;;;;;;;;;;;;;17.23;45.68;101721.88;10327149;28;894;-74
2023/12/17 09:15:19;;;;;;;;;;;;;;;17.25;45.56;101721.88;10326842;28;1947;-74
2023/12/17 09:20:15;;;;;;;;;;;;;;;17.24;45.67;101723.66;10326735;28;778;-73
2023/12/17 09:25:11;;;;;;;;;;;;;;;17.27;45.52;101720.13;10326325;28;936;-74
2023/12/17 09:30:08;;;;;;;;;;;;;;;17.26;45.36;101729.75;10326359;28;869;-74
2023/12/17 09:35:05;;;;;;;;;;;;;;;17.30;45.36;101720.94;10326891;28;1906;-73
2023/12/17 09:40:02;;;;;;;;;;;;;;;17.31;45.39;101721.81;10325192;28;953;-74
2023/12/17 09:44:59;;;;;;;;;;;;;;;17.27;45.52;101713.06;10325092;28;1256;-74
2023/12/17 09:49:54;;;;;;;;;;;;;;;17.28;45.49;101713.94;10325565;28;1165;-74
2023/12/17 09:54:51;;;;;;;;;;;;;;;17.33;45.45;101716.53;10325499;28;1894;-73
2023/12/17 09:59:47;;;;;;;;;;;;;;;17.29;45.37;101703.41;10325451;28;771;-73
2023/12/17 10:04:43;;;;;;;;;;;;;;;17.29;45.46;101710.41;10325260;28;853;-74
2023/12/17 10:09:39;;;;;;;;;;;;;;;17.31;45.38;101698.97;10325153;28;857;-73
2023/12/17 10:14:35;;;;;;;;;;;;;;;17.30;45.30;101694.59;10325000;28;1959;-74
2023/12/17 10:19:31;;;;;;;;;;;;;;;17.35;45.10;101691.06;10324630;28;974;-74
2023/12/17 10:24:27;;;;;;;;;;;;;;;17.36;45.30;101690.16;10324277;28;1271;-74
2023/12/17 10:29:23;;;;;;;;;;;;;;;17.36;45.31;101684.88;10324820;28;756;-74
2023/12/17 10:34:19;;;;;;;;;;;;;;;17.40;45.22;101676.94;10324467;28;1910;-74
2023/12/17 10:39:15;;;;;;;;;;;;;;;17.41;45.06;101677.78;10325348;28;827;-73
2023/12/17 10:44:11;;;;;;;;;;;;;;;17.43;45.15;101673.38;10323979;28;988;-74
2023/12/17 10:49:07;;;;;;;;;;;;;;;17.44;45.07;101667.22;10324424;28;1729;-74
2023/12/17 10:54:03;;;;;;;;;;;;;;;17.43;45.21;101661.06;10325271;28;874;-77
2023/12/17 10:58:59;;;;;;;;;;;;;;;17.44;45.26;101647.00;10324986;28;1953;-74
2023/12/17 11:03:55;;;;;;;;;;;;;;;17.45;45.51;101639.97;10324860;28;806;-74
2023/12/17 11:08:50;;;;;;;;;;;;;;;17.46;45.20;101639.94;10324642;28;988;-74
2023/12/17 11:13:46;;;;;;;;;;;;;;;17.46;45.18;101631.16;10323967;28;762;-74
2023/12/17 11:18:42;;;;;;;;;;;;;;;17.50;45.31;101632.84;10323751;28;1901;-73
2023/12/17 11:23:38;;;;;;;;;;;;;;;17.50;45.07;101635.50;10323698;28;1008;-73
2023/12/17 11:28:34;;;;;;;;;;;;;;;17.48;45.37;101632.91;10327461;28;827;-73
2023/12/17 11:33:30;;;;;;;;;;;;;;;17.49;45.25;101631.13;10330953;28;894;-73
2023/12/17 11:38:26;;;;;;;;;;;;;;;17.51;45.10;101627.56;10331118;28;1922;-73
2023/12/17 11:43:24;;;;;;;;;;;;;;;17.51;45.09;101621.44;10331290;28;857;-73
2023/12/17 11:48:20;;;;;;;;;;;;;;;17.53;45.08;101623.16;10330138;28;1010;-73
2023/12/17 11:53:16;;;;;;;;;;;;;;;17.58;45.29;101617.84;10330649;28;1008;-74
2023/12/17 11:58:15;;;;;;;;;;;;;;;17.53;45.12;101609.13;10329778;28;1901;-73
2023/12/17 12:03:11;;;;;;;;;;;;;;;17.59;45.07;101606.38;10330137;28;899;-73
2023/12/17 12:08:07;;;;;;;;;;;;;;;17.60;45.18;101591.44;10330281;28;935;-74
2023/12/17 12:13:03;;;;;;;;;;;;;;;17.62;44.80;101595.78;10329266;28;770;-73
2023/12/17 12:17:59;;;;;;;;;;;;;;;17.67;44.78;101591.34;10329535;28;1898;-73
2023/12/17 12:22:55;;;;;;;;;;;;;;;17.73;44.62;101582.47;10328836;28;798;-73
2023/12/17 12:27:50;;;;;;;;;;;;;;;17.78;44.53;101577.13;10328926;28;957;-73
2023/12/17 12:32:46;;;;;;;;;;;;;;;17.87;44.39;101567.38;10328483;28;771;-74
2023/12/17 12:37:42;;;;;;;;;;;;;;;17.94;44.32;101560.22;10328248;28;1972;-73
2023/12/17 12:42:38;;;;;;;;;;;;;;;17.97;44.37;101554.88;10327913;28;940;-73
2023/12/17 12:47:34;;;;;;;;;;;;;;;18.07;44.35;101545.94;10327892;28;972;-73
2023/12/17 12:52:30;;;;;;;;;;;;;;;18.10;44.11;101532.72;10328290;28;818;-73
2023/12/17 12:57:26;;;;;;;;;;;;;;;18.10;44.32;101537.09;10327444;28;1906;-73
2023/12/17 13:02:22;;;;;;;;;;;;;;;18.02;44.29;101526.66;10327209;28;882;-73
2023/12/17 13:07:18;;;;;;;;;;;;;;;18.09;44.32;101520.41;10327119;28;788;-73
2023/12/17 13:12:13;;;;;;;;;;;;;;;18.08;44.30;101507.25;10326903;28;945;-73
2023/12/17 13:17:09;;;;;;;;;;;;;;;18.09;44.29;101512.47;10327062;28;1898;-74
2023/12/17 13:22:05;;;;;;;;;;;;;;;18.12;44.19;101507.16;10326518;28;834;-72
2023/12/17 13:27:02;;;;;;;;;;;;;;;18.18;44.11;101514.09;10326317;28;806;-73
2023/12/17 13:31:58;;;;;;;;;;;;;;;18.20;44.13;101508.78;10326827;28;1000;-73
2023/12/17 13:36:53;;;;;;;;;;;;;;;18.23;44.23;101512.25;10326516;28;1979;-73
2023/12/17 13:41:49;;;;;;;;;;;;;;;18.25;44.17;101509.59;10325949;28;937;-73
2023/12/17 13:46:46;;;;;;;;;;;;;;;18.17;44.41;101504.44;10326315;28;1051;-73
2023/12/17 13:51:42;;;;;;;;;;;;;;;18.11;44.46;101502.78;10326007;28;936;-77
2023/12/17 13:56:39;;;;;;;;;;;;;;;18.08;44.53;101496.69;10325407;28;1898;-74
2023/12/17 14:01:35;;;;;;;;;;;;;;;17.92;44.82;101493.41;10325435;28;794;-73
2023/12/17 14:06:30;;;;;;;;;;;;;;;17.96;44.61;101501.25;10325279;28;902;-73
2023/12/17 14:11:27;;;;;;;;;;;;;;;17.95;44.95;101493.38;10325971;28;992;-74
2023/12/17 14:16:28;;;;;;;;;;;;;;;17.91;44.93;101484.63;10325284;28;1949;-74
2023/12/17 14:21:24;;;;;;;;;;;;;;;17.93;44.97;101485.47;10325684;28;1602;-73
2023/12/17 14:26:20;;;;;;;;;;;;;;;17.90;45.00;101487.31;10325213;28;953;-74
2023/12/17 14:31:15;;;;;;;;;;;;;;;17.86;45.09;101473.28;10325771;28;762;-73
2023/12/17 14:36:12;;;;;;;;;;;;;;;17.86;45.14;101473.28;10324408;28;1985;-73
2023/12/17 14:41:08;;;;;;;;;;;;;;;17.86;45.01;101454.81;10324859;28;852;-74
2023/12/17 14:46:04;;;;;;;;;;;;;;;17.84;45.07;101445.19;10324725;28;986;-73
2023/12/17 14:50:59;;;;;;;;;;;;;;;17.78;45.37;101453.16;10325197;28;810;-73
2023/12/17 14:55:55;;;;;;;;;;;;;;;17.67;45.51;101446.28;10323925;28;1956;-76
2023/12/17 15:00:51;;;;;;;;;;;;;;;17.62;45.55;101447.25;10324766;28;854;-74
2023/12/17 15:05:47;;;;;;;;;;;;;;;17.61;45.38;101453.44;10332312;28;1006;-73
2023/12/17 15:10:43;;;;;;;;;;;;;;;17.56;45.61;101450.88;10332507;28;896;-73
2023/12/17 15:15:39;;;;;;;;;;;;;;;17.54;45.68;101447.38;10331722;28;1897;-74
2023/12/17 15:20:36;;;;;;;;;;;;;;;17.56;45.60;101456.16;10332107;28;864;-74
2023/12/17 15:25:32;;;;;;;;;;;;;;;17.60;45.71;101444.63;10331301;28;906;-74
2023/12/17 15:30:28;;;;;;;;;;;;;;;17.58;45.70;101448.19;10331227;28;838;-73
2023/12/17 15:35:24;;;;;;;;;;;;;;;17.58;45.72;101458.75;10330378;28;1910;-73
2023/12/17 15:40:20;;;;;;;;;;;;;;;17.61;45.49;101456.94;10331432;28;881;-73
2023/12/17 15:45:16;;;;;;;;;;;;;;;17.61;45.44;101454.31;10330640;28;894;-73
2023/12/17 15:50:13;;;;;;;;;;;;;;;17.67;45.31;101458.63;10330394;28;915;-73
2023/12/17 15:55:09;;;;;;;;;;;;;;;17.67;45.46;101442.78;10330256;28;1898;-73
2023/12/17 16:00:09;;;;;;;;;;;;;;;17.67;45.60;101445.44;10330138;28;749;-75
2023/12/17 16:05:04;;;;;;;;;;;;;;;17.70;45.53;101437.47;10329958;28;851;-74
2023/12/17 16:10:01;;;;;;;;;;;;;;;17.72;45.34;101439.19;10329710;28;794;-74
2023/12/17 16:14:57;;;;;;;;;;;;;;;17.69;45.46;101436.59;10328783;28;1901;-74
2023/12/17 16:19:53;;;;;;;;;;;;;;;17.76;45.77;101424.16;10329314;28;1138;-74
2023/12/17 16:24:49;;;;;;;;;;;;;;;17.76;45.80;101429.44;10329355;28;785;-74
2023/12/17 16:29:45;;;;;;;;;;;;;;;17.76;45.91;101432.06;10329618;28;916;-77
2023/12/17 16:34:41;;;;;;;;;;;;;;;17.79;45.97;101431.16;10328642;28;1973;-73
2023/12/17 16:39:37;;;;;;;;;;;;;;;17.81;46.04;101430.28;10328523;28;902;-74
2023/12/17 16:44:33;;;;;;;;;;;;;;;17.79;45.89;101436.44;10328366;28;903;-73
2023/12/17 16:49:29;;;;;;;;;;;;;;;17.85;45.76;101436.38;10328155;28;914;-73
2023/12/17 16:54:25;;;;;;;;;;;;;;;17.83;45.84;101423.22;10328492;28;1064;-74
2023/12/17 16:59:21;;;;;;;;;;;;;;;17.80;45.85;101425.03;10328470;28;1886;-76
2023/12/17 17:04:17;;;;;;;;;;;;;;;17.80;45.81;101420.63;10327489;28;919;-73
2023/12/17 17:09:13;;;;;;;;;;;;;;;17.84;45.56;101429.34;10328840;28;917;-73
2023/12/17 17:14:09;;;;;;;;;;;;;;;17.81;45.79;101418.84;10327770;28;857;-73
2023/12/17 17:19:05;;;;;;;;;;;;;;;17.83;45.73;101424.97;10327552;28;1898;-73
2023/12/17 17:24:01;;;;;;;;;;;;;;;17.85;45.65;101436.38;10326705;28;917;-73
2023/12/17 17:28:59;;;;;;;;;;;;;;;17.83;45.66;101439.03;10326246;28;957;-73
2023/12/17 17:33:55;;;;;;;;;;;;;;;17.84;45.54;101437.25;10327113;28;1245;-73
2023/12/17 17:38:51;;;;;;;;;;;;;;;17.87;45.50;101442.50;10325593;28;1968;-73
2023/12/17 17:43:47;;;;;;;;;;;;;;;17.86;45.51;101444.25;10327118;28;783;-73
2023/12/17 17:48:43;;;;;;;;;;;;;;;17.83;45.77;101436.41;10326005;28;766;-74
2023/12/17 17:53:42;;;;;;;;;;;;;;;17.89;45.40;101448.63;10325860;28;872;-73
2023/12/17 17:58:38;;;;;;;;;;;;;;;17.86;45.51;101443.38;10325718;28;1897;-73
2023/12/17 18:03:34;;;;;;;;;;;;;;;17.85;45.52;101436.38;10326249;28;851;-73
2023/12/17 18:08:30;;;;;;;;;;;;;;;17.87;45.42;101440.75;10325544;28;863;-73
2023/12/17 18:13:27;;;;;;;;;;;;;;;17.87;45.73;101443.38;10326059;28;889;-73
2023/12/17 18:18:23;;;;;;;;;;;;;;;17.88;45.28;101436.34;10326328;28;1955;-73
2023/12/17 18:23:19;;;;;;;;;;;;;;;17.91;45.44;101442.41;10325278;28;965;-74
2023/12/17 18:28:15;;;;;;;;;;;;;;;17.90;45.54;101437.19;10325796;28;849;-73
2023/12/17 18:33:11;;;;;;;;;;;;;;;17.90;45.20;101431.91;10324430;28;1081;-73
2023/12/17 18:38:07;;;;;;;;;;;;;;;17.91;45.47;101436.28;10328015;28;1906;-73
2023/12/17 18:43:03;;;;;;;;;;;;;;;17.93;45.16;101427.44;10333721;28;818;-74
2023/12/17 18:47:59;;;;;;;;;;;;;;;17.90;45.53;101419.59;10333522;28;834;-73
2023/12/17 18:52:55;;;;;;;;;;;;;;;17.93;45.37;101418.66;10333290;28;850;-73
2023/12/17 18:57:51;;;;;;;;;;;;;;;17.94;45.17;101420.38;10333009;28;1889;-74
2023/12/17 19:02:48;;;;;;;;;;;;;;;17.91;45.44;101426.59;10332918;28;961;-73
2023/12/17 19:07:44;;;;;;;;;;;;;;;17.94;45.23;101423.03;10332655;28;806;-73
2023/12/17 19:12:40;;;;;;;;;;;;;;;17.96;45.21;101418.59;10332475;28;838;-73
2023/12/17 19:17:36;;;;;;;;;;;;;;;17.94;45.25;101408.06;10332279;28;1961;-73
2023/12/17 19:22:32;;;;;;;;;;;;;;;17.93;45.36;101393.16;10332178;28;893;-73
2023/12/17 19:27:28;;;;;;;;;;;;;;;18.00;45.33;101403.56;10331992;28;763;-73
2023/12/17 19:32:24;;;;;;;;;;;;;;;17.95;45.31;101395.78;10332273;28;1002;-73
2023/12/17 19:37:19;;;;;;;;;;;;;;;17.95;45.25;101385.22;10330514;28;1910;-73
2023/12/17 19:42:15;;;;;;;;;;;;;;;17.98;45.20;101374.59;10330954;28;992;-74
2023/12/17 19:47:11;;;;;;;;;;;;;;;17.98;45.27;101365.81;10330931;28;841;-73
2023/12/17 19:52:07;;;;;;;;;;;;;;;17.95;45.28;101359.69;10330974;28;799;-73
2023/12/17 19:57:04;;;;;;;;;;;;;;;17.98;45.15;101358.78;10330208;28;1959;-73
2023/12/17 20:02:00;;;;;;;;;;;;;;;17.96;45.20;101353.50;10330751;28;818;-73
2023/12/17 20:06:56;;;;;;;;;;;;;;;17.94;45.24;101346.53;10330139;28;831;-73
2023/12/17 20:11:53;;;;;;;;;;;;;;;17.96;45.14;101352.66;10330380;28;877;-73
2023/12/17 20:16:48;;;;;;;;;;;;;;;17.96;45.37;101342.09;10329511;28;1906;-73
2023/12/17 20:21:44;;;;;;;;;;;;;;;17.99;45.34;101357.00;10329390;28;767;-73
2023/12/17 20:26:40;;;;;;;;;;;;;;;17.99;45.25;101349.94;10329714;28;890;-73
2023/12/17 20:31:37;;;;;;;;;;;;;;;18.00;45.27;101340.25;10328933;28;906;-73
2023/12/17 20:36:33;;;;;;;;;;;;;;;17.96;45.40;101344.72;10329559;28;1910;-73
2023/12/17 20:41:29;;;;;;;;;;;;;;;17.91;45.26;101336.03;10328583;28;965;-74
2023/12/17 20:46:25;;;;;;;;;;;;;;;17.91;45.41;101322.84;10327661;28;980;-74
2023/12/17 20:51:21;;;;;;;;;;;;;;;17.89;45.48;101314.06;10328967;28;854;-73
2023/12/17 20:56:17;;;;;;;;;;;;;;;17.87;45.32;101316.75;10328855;28;1958;-73
2023/12/17 21:01:13;;;;;;;;;;;;;;;17.85;45.28;101330.88;10327670;28;863;-74
2023/12/17 21:06:08;;;;;;;;;;;;;;;17.84;45.58;101314.19;10327506;28;868;-73
2023/12/17 21:11:04;;;;;;;;;;;;;;;17.84;45.50;101308.00;10327930;28;873;-73
2023/12/17 21:16:00;;;;;;;;;;;;;;;17.83;45.36;101316.84;10327075;28;1962;-73
2023/12/17 21:20:56;;;;;;;;;;;;;;;17.82;45.33;101317.75;10326475;28;1195;-73
2023/12/17 21:25:53;;;;;;;;;;;;;;;17.82;45.43;101321.25;10327442;28;798;-73
2023/12/17 21:30:48;;;;;;;;;;;;;;;17.83;45.45;101328.25;10327265;28;1342;-74
2023/12/17 21:35:44;;;;;;;;;;;;;;;17.81;45.38;101326.53;10326047;28;1967;-73
2023/12/17 21:40:40;;;;;;;;;;;;;;;17.82;45.43;101328.31;10326814;28;841;-73
2023/12/17 21:45:36;;;;;;;;;;;;;;;17.82;45.40;101315.13;10325737;28;905;-73
2023/12/17 21:50:32;;;;;;;;;;;;;;;17.80;45.58;101317.75;10325959;28;922;-73
2023/12/17 21:55:29;;;;;;;;;;;;;;;17.79;45.46;101330.94;10326430;28;1957;-73
2023/12/17 22:00:24;;;;;;;;;;;;;;;17.74;45.55;101334.53;10326356;28;805;-73
2023/12/17 22:05:20;;;;;;;;;;;;;;;17.78;45.48;101334.47;10326258;28;799;-73
2023/12/17 22:10:16;;;;;;;;;;;;;;;17.75;45.33;101327.50;10326598;28;838;-73
2023/12/17 22:15:12;;;;;;;;;;;;;;;17.75;45.49;101325.72;10325333;28;1894;-73
2023/12/17 22:20:08;;;;;;;;;;;;;;;17.70;45.74;101322.28;10325440;28;900;-73
2023/12/17 22:25:04;;;;;;;;;;;;;;;17.70;45.45;101314.38;10325252;28;960;-73
2023/12/17 22:30:03;;;;;;;;;;;;;;;17.73;45.49;101319.59;10325156;28;927;-72
2023/12/17 22:34:59;;;;;;;;;;;;;;;17.70;45.68;101327.56;10324734;28;1886;-72
2023/12/17 22:39:55;;;;;;;;;;;;;;;17.65;45.55;101324.13;10325541;28;920;-73
2023/12/17 22:44:50;;;;;;;;;;;;;;;17.65;45.74;101315.38;10325476;28;840;-73
2023/12/17 22:49:46;;;;;;;;;;;;;;;17.67;45.58;101308.31;10324773;28;771;-73
2023/12/17 22:54:42;;;;;;;;;;;;;;;17.64;45.62;101321.53;10325199;28;1953;-73
2023/12/17 22:59:38;;;;;;;;;;;;;;;17.61;45.70;101304.00;10325405;28;857;-73
2023/12/17 23:04:34;;;;;;;;;;;;;;;17.60;45.69;101299.63;10325358;28;826;-73
2023/12/17 23:09:30;;;;;;;;;;;;;;;17.63;45.62;101296.06;10323747;28;890;-73
2023/12/17 23:14:26;;;;;;;;;;;;;;;17.60;45.82;101304.91;10324203;28;1114;-72
2023/12/17 23:19:22;;;;;;;;;;;;;;;17.59;45.72;101308.44;10324136;28;1898;-72
2023/12/17 23:24:18;;;;;;;;;;;;;;;17.57;45.53;101301.44;10308919;28;793;-73
2023/12/17 23:29:14;;;;;;;;;;;;;;;17.54;45.82;101305.00;10331359;28;763;-73
2023/12/17 23:34:10;;;;;;;;;;;;;;;17.53;45.73;101298.88;10331392;28;1003;-73
2023/12/17 23:39:07;;;;;;;;;;;;;;;17.52;45.61;101294.47;10331760;28;1906;-73
2023/12/17 23:44:03;;;;;;;;;;;;;;;17.51;45.86;101295.38;10331559;28;870;-72
2023/12/17 23:48:59;;;;;;;;;;;;;;;17.50;45.86;101298.94;10331377;28;811;-73
2023/12/17 23:53:54;;;;;;;;;;;;;;;17.52;45.65;101304.16;10330725;28;897;-73
2023/12/17 23:58:50;;;;;;;;;;;;;;;17.50;45.67;101309.47;10330276;28;1949;-73
